sensor_id;sensor_type;location;lat;lon;timestamp;P1;durP1;ratioP1;P2;durP2;ratioP2
16731;SDS011;8484;50.904;9.192;2023-07-13T00:01:43;1.60;;;0.60;;
16731;SDS011;8484;50.904;9.192;2023-07-13T00:04:13;1.77;;;0.67;;
16731;SDS011;8484;50.904;9.192;2023-07-13T00:06:40;1.40;;;0.60;;
16731;SDS011;8484;50.904;9.192;2023-07-13T00:09:10;1.67;;;0.83;;
16731;SDS011;8484;50.904;9.192;2023-07-13T00:11:37;0.70;;;0.63;;
16731;SDS011;8484;50.904;9.192;2023-07-13T00:14:04;1.60;;;0.90;;
16731;SDS011;8484;50.904;9.192;2023-07-13T00:16:32;2.80;;;1.00;;
16731;SDS011;8484;50.904;9.192;2023-07-13T00:19:00;0.77;;;0.70;;
16731;SDS011;8484;50.904;9.192;2023-07-13T00:21:29;2.27;;;1.17;;
16731;SDS011;8484;50.904;9.192;2023-07-13T00:23:56;1.13;;;0.90;;
16731;SDS011;8484;50.904;9.192;2023-07-13T00:26:23;0.80;;;0.70;;
16731;SDS011;8484;50.904;9.192;2023-07-13T00:28:50;1.00;;;0.80;;
16731;SDS011;8484;50.904;9.192;2023-07-13T00:31:17;1.13;;;0.70;;
16731;SDS011;8484;50.904;9.192;2023-07-13T00:33:44;1.80;;;0.80;;
16731;SDS011;8484;50.904;9.192;2023-07-13T00:36:11;1.80;;;0.70;;
16731;SDS011;8484;50.904;9.192;2023-07-13T00:38:40;2.50;;;0.80;;
16731;SDS011;8484;50.904;9.192;2023-07-13T00:41:08;1.30;;;0.80;;
16731;SDS011;8484;50.904;9.192;2023-07-13T00:43:36;2.30;;;0.93;;
16731;SDS011;8484;50.904;9.192;2023-07-13T00:46:15;1.13;;;0.60;;
16731;SDS011;8484;50.904;9.192;2023-07-13T00:48:50;1.53;;;0.83;;
16731;SDS011;8484;50.904;9.192;2023-07-13T00:51:22;1.13;;;0.87;;
16731;SDS011;8484;50.904;9.192;2023-07-13T00:53:54;1.30;;;0.70;;
16731;SDS011;8484;50.904;9.192;2023-07-13T00:56:25;2.20;;;0.90;;
16731;SDS011;8484;50.904;9.192;2023-07-13T00:58:53;1.30;;;0.70;;
16731;SDS011;8484;50.904;9.192;2023-07-13T01:01:21;0.77;;;0.77;;
16731;SDS011;8484;50.904;9.192;2023-07-13T01:03:48;1.70;;;1.10;;
16731;SDS011;8484;50.904;9.192;2023-07-13T01:06:15;1.50;;;0.97;;
16731;SDS011;8484;50.904;9.192;2023-07-13T01:08:43;2.60;;;0.80;;
16731;SDS011;8484;50.904;9.192;2023-07-13T01:11:11;1.80;;;0.93;;
16731;SDS011;8484;50.904;9.192;2023-07-13T01:13:38;2.87;;;1.13;;
16731;SDS011;8484;50.904;9.192;2023-07-13T01:16:05;1.43;;;0.70;;
16731;SDS011;8484;50.904;9.192;2023-07-13T01:18:41;4.10;;;1.00;;
16731;SDS011;8484;50.904;9.192;2023-07-13T01:21:09;3.00;;;1.07;;
16731;SDS011;8484;50.904;9.192;2023-07-13T01:23:36;2.03;;;0.90;;
16731;SDS011;8484;50.904;9.192;2023-07-13T01:26:02;1.40;;;0.80;;
16731;SDS011;8484;50.904;9.192;2023-07-13T01:28:29;2.17;;;1.00;;
16731;SDS011;8484;50.904;9.192;2023-07-13T01:30:57;1.33;;;0.90;;
16731;SDS011;8484;50.904;9.192;2023-07-13T01:33:24;5.53;;;1.10;;
16731;SDS011;8484;50.904;9.192;2023-07-13T01:35:52;1.93;;;0.90;;
16731;SDS011;8484;50.904;9.192;2023-07-13T01:38:21;2.53;;;1.10;;
16731;SDS011;8484;50.904;9.192;2023-07-13T01:40:49;2.17;;;1.07;;
16731;SDS011;8484;50.904;9.192;2023-07-13T01:43:16;1.43;;;0.83;;
16731;SDS011;8484;50.904;9.192;2023-07-13T01:45:43;1.93;;;1.00;;
16731;SDS011;8484;50.904;9.192;2023-07-13T01:48:10;1.10;;;1.00;;
16731;SDS011;8484;50.904;9.192;2023-07-13T01:50:37;2.60;;;1.03;;
16731;SDS011;8484;50.904;9.192;2023-07-13T01:53:05;1.50;;;1.00;;
16731;SDS011;8484;50.904;9.192;2023-07-13T01:55:33;1.87;;;1.10;;
16731;SDS011;8484;50.904;9.192;2023-07-13T01:58:01;1.53;;;1.23;;
16731;SDS011;8484;50.904;9.192;2023-07-13T02:00:28;2.40;;;1.10;;
16731;SDS011;8484;50.904;9.192;2023-07-13T02:02:55;1.57;;;1.00;;
16731;SDS011;8484;50.904;9.192;2023-07-13T02:05:22;2.03;;;1.00;;
16731;SDS011;8484;50.904;9.192;2023-07-13T02:07:53;2.13;;;1.43;;
16731;SDS011;8484;50.904;9.192;2023-07-13T02:10:20;1.80;;;0.87;;
16731;SDS011;8484;50.904;9.192;2023-07-13T02:12:49;2.07;;;0.90;;
16731;SDS011;8484;50.904;9.192;2023-07-13T02:15:16;2.90;;;1.00;;
16731;SDS011;8484;50.904;9.192;2023-07-13T02:17:43;0.90;;;0.80;;
16731;SDS011;8484;50.904;9.192;2023-07-13T02:20:10;1.93;;;1.00;;
16731;SDS011;8484;50.904;9.192;2023-07-13T02:22:37;1.63;;;0.90;;
16731;SDS011;8484;50.904;9.192;2023-07-13T02:25:04;1.20;;;0.77;;
16731;SDS011;8484;50.904;9.192;2023-07-13T02:27:31;2.37;;;0.90;;
16731;SDS011;8484;50.904;9.192;2023-07-13T02:29:59;2.70;;;1.00;;
16731;SDS011;8484;50.904;9.192;2023-07-13T02:32:26;3.20;;;1.00;;
16731;SDS011;8484;50.904;9.192;2023-07-13T02:34:53;1.37;;;0.90;;
16731;SDS011;8484;50.904;9.192;2023-07-13T02:37:20;4.33;;;1.10;;
16731;SDS011;8484;50.904;9.192;2023-07-13T02:39:47;0.97;;;0.70;;
16731;SDS011;8484;50.904;9.192;2023-07-13T02:42:14;1.90;;;0.80;;
16731;SDS011;8484;50.904;9.192;2023-07-13T02:44:41;2.27;;;1.00;;
16731;SDS011;8484;50.904;9.192;2023-07-13T02:47:09;1.90;;;0.73;;
16731;SDS011;8484;50.904;9.192;2023-07-13T02:49:36;1.93;;;0.90;;
16731;SDS011;8484;50.904;9.192;2023-07-13T02:52:03;1.20;;;0.87;;
16731;SDS011;8484;50.904;9.192;2023-07-13T02:54:31;1.80;;;0.87;;
16731;SDS011;8484;50.904;9.192;2023-07-13T02:56:57;1.97;;;0.80;;
16731;SDS011;8484;50.904;9.192;2023-07-13T02:59:24;0.83;;;0.70;;
16731;SDS011;8484;50.904;9.192;2023-07-13T03:01:51;5.00;;;0.80;;
16731;SDS011;8484;50.904;9.192;2023-07-13T03:04:21;1.00;;;0.80;;
16731;SDS011;8484;50.904;9.192;2023-07-13T03:06:48;1.80;;;0.87;;
16731;SDS011;8484;50.904;9.192;2023-07-13T03:09:15;2.03;;;1.00;;
16731;SDS011;8484;50.904;9.192;2023-07-13T03:11:42;1.40;;;1.00;;
16731;SDS011;8484;50.904;9.192;2023-07-13T03:14:09;1.43;;;0.80;;
16731;SDS011;8484;50.904;9.192;2023-07-13T03:16:35;0.70;;;0.70;;
16731;SDS011;8484;50.904;9.192;2023-07-13T03:19:02;1.27;;;0.70;;
16731;SDS011;8484;50.904;9.192;2023-07-13T03:21:31;1.50;;;0.80;;
16731;SDS011;8484;50.904;9.192;2023-07-13T03:23:58;1.70;;;0.93;;
16731;SDS011;8484;50.904;9.192;2023-07-13T03:26:24;1.23;;;0.87;;
16731;SDS011;8484;50.904;9.192;2023-07-13T03:28:51;0.70;;;0.60;;
16731;SDS011;8484;50.904;9.192;2023-07-13T03:31:19;0.70;;;0.70;;
16731;SDS011;8484;50.904;9.192;2023-07-13T03:33:47;1.50;;;0.80;;
16731;SDS011;8484;50.904;9.192;2023-07-13T03:36:15;0.97;;;0.83;;
16731;SDS011;8484;50.904;9.192;2023-07-13T03:38:46;2.30;;;0.80;;
16731;SDS011;8484;50.904;9.192;2023-07-13T03:41:14;2.57;;;0.97;;
16731;SDS011;8484;50.904;9.192;2023-07-13T03:43:46;2.17;;;1.00;;
16731;SDS011;8484;50.904;9.192;2023-07-13T03:46:13;2.80;;;1.00;;
16731;SDS011;8484;50.904;9.192;2023-07-13T03:48:40;1.93;;;0.90;;
16731;SDS011;8484;50.904;9.192;2023-07-13T03:51:08;1.50;;;0.80;;
16731;SDS011;8484;50.904;9.192;2023-07-13T03:53:38;4.23;;;1.20;;
16731;SDS011;8484;50.904;9.192;2023-07-13T03:56:08;1.47;;;0.77;;
16731;SDS011;8484;50.904;9.192;2023-07-13T03:58:36;3.23;;;0.80;;
16731;SDS011;8484;50.904;9.192;2023-07-13T04:01:04;1.83;;;0.87;;
16731;SDS011;8484;50.904;9.192;2023-07-13T04:03:33;2.40;;;0.97;;
16731;SDS011;8484;50.904;9.192;2023-07-13T04:06:00;2.90;;;0.90;;
16731;SDS011;8484;50.904;9.192;2023-07-13T04:08:28;4.87;;;1.30;;
16731;SDS011;8484;50.904;9.192;2023-07-13T04:10:57;1.33;;;0.80;;
16731;SDS011;8484;50.904;9.192;2023-07-13T04:13:26;1.77;;;0.90;;
16731;SDS011;8484;50.904;9.192;2023-07-13T04:15:53;2.63;;;1.10;;
16731;SDS011;8484;50.904;9.192;2023-07-13T04:18:20;1.43;;;0.93;;
16731;SDS011;8484;50.904;9.192;2023-07-13T04:20:47;1.87;;;0.90;;
16731;SDS011;8484;50.904;9.192;2023-07-13T04:23:15;2.37;;;1.00;;
16731;SDS011;8484;50.904;9.192;2023-07-13T04:25:43;1.47;;;0.90;;
16731;SDS011;8484;50.904;9.192;2023-07-13T04:28:10;2.17;;;1.10;;
16731;SDS011;8484;50.904;9.192;2023-07-13T04:30:38;1.53;;;0.90;;
16731;SDS011;8484;50.904;9.192;2023-07-13T04:33:05;4.80;;;1.40;;
16731;SDS011;8484;50.904;9.192;2023-07-13T04:35:33;3.30;;;1.10;;
16731;SDS011;8484;50.904;9.192;2023-07-13T04:38:00;3.33;;;1.23;;
16731;SDS011;8484;50.904;9.192;2023-07-13T04:40:28;2.03;;;0.80;;
16731;SDS011;8484;50.904;9.192;2023-07-13T04:42:55;1.40;;;1.03;;
16731;SDS011;8484;50.904;9.192;2023-07-13T04:45:22;3.40;;;1.20;;
16731;SDS011;8484;50.904;9.192;2023-07-13T04:47:52;2.63;;;1.27;;
16731;SDS011;8484;50.904;9.192;2023-07-13T04:50:18;2.17;;;1.23;;
16731;SDS011;8484;50.904;9.192;2023-07-13T04:52:48;2.40;;;1.40;;
16731;SDS011;8484;50.904;9.192;2023-07-13T04:55:15;1.90;;;1.30;;
16731;SDS011;8484;50.904;9.192;2023-07-13T04:57:42;3.10;;;1.30;;
16731;SDS011;8484;50.904;9.192;2023-07-13T05:00:10;3.53;;;1.53;;
16731;SDS011;8484;50.904;9.192;2023-07-13T05:02:38;3.13;;;1.03;;
16731;SDS011;8484;50.904;9.192;2023-07-13T05:05:07;1.77;;;1.00;;
16731;SDS011;8484;50.904;9.192;2023-07-13T05:07:34;1.70;;;1.00;;
16731;SDS011;8484;50.904;9.192;2023-07-13T05:10:01;2.37;;;1.20;;
16731;SDS011;8484;50.904;9.192;2023-07-13T05:12:30;3.47;;;1.13;;
16731;SDS011;8484;50.904;9.192;2023-07-13T05:14:58;2.73;;;1.20;;
16731;SDS011;8484;50.904;9.192;2023-07-13T05:17:25;1.63;;;0.80;;
16731;SDS011;8484;50.904;9.192;2023-07-13T05:19:51;2.10;;;1.00;;
16731;SDS011;8484;50.904;9.192;2023-07-13T05:22:20;0.70;;;0.60;;
16731;SDS011;8484;50.904;9.192;2023-07-13T05:24:46;1.40;;;0.80;;
16731;SDS011;8484;50.904;9.192;2023-07-13T05:27:13;2.10;;;0.97;;
16731;SDS011;8484;50.904;9.192;2023-07-13T05:29:40;2.40;;;0.90;;
16731;SDS011;8484;50.904;9.192;2023-07-13T05:32:07;1.77;;;1.00;;
16731;SDS011;8484;50.904;9.192;2023-07-13T05:34:34;3.43;;;1.17;;
16731;SDS011;8484;50.904;9.192;2023-07-13T05:37:00;1.97;;;0.90;;
16731;SDS011;8484;50.904;9.192;2023-07-13T05:39:29;1.90;;;1.03;;
16731;SDS011;8484;50.904;9.192;2023-07-13T05:41:55;1.80;;;0.90;;
16731;SDS011;8484;50.904;9.192;2023-07-13T05:44:22;3.67;;;1.10;;
16731;SDS011;8484;50.904;9.192;2023-07-13T05:46:49;2.60;;;0.90;;
16731;SDS011;8484;50.904;9.192;2023-07-13T05:49:16;2.43;;;1.00;;
16731;SDS011;8484;50.904;9.192;2023-07-13T05:51:43;2.53;;;0.90;;
16731;SDS011;8484;50.904;9.192;2023-07-13T05:54:10;3.03;;;1.13;;
16731;SDS011;8484;50.904;9.192;2023-07-13T05:56:38;2.57;;;0.87;;
16731;SDS011;8484;50.904;9.192;2023-07-13T05:59:05;7.30;;;1.00;;
16731;SDS011;8484;50.904;9.192;2023-07-13T06:01:32;6.30;;;1.00;;
16731;SDS011;8484;50.904;9.192;2023-07-13T06:03:59;2.17;;;0.90;;
16731;SDS011;8484;50.904;9.192;2023-07-13T06:06:26;2.57;;;0.87;;
16731;SDS011;8484;50.904;9.192;2023-07-13T06:08:52;1.07;;;0.70;;
16731;SDS011;8484;50.904;9.192;2023-07-13T06:11:20;1.50;;;0.90;;
16731;SDS011;8484;50.904;9.192;2023-07-13T06:13:50;2.63;;;0.70;;
16731;SDS011;8484;50.904;9.192;2023-07-13T06:16:17;1.30;;;0.90;;
16731;SDS011;8484;50.904;9.192;2023-07-13T06:18:45;2.50;;;0.80;;
16731;SDS011;8484;50.904;9.192;2023-07-13T06:21:13;3.80;;;0.90;;
16731;SDS011;8484;50.904;9.192;2023-07-13T06:23:41;1.67;;;0.70;;
16731;SDS011;8484;50.904;9.192;2023-07-13T06:26:08;1.80;;;0.60;;
16731;SDS011;8484;50.904;9.192;2023-07-13T06:28:36;4.13;;;0.90;;
16731;SDS011;8484;50.904;9.192;2023-07-13T06:31:06;2.23;;;0.60;;
16731;SDS011;8484;50.904;9.192;2023-07-13T06:33:35;1.80;;;0.67;;
16731;SDS011;8484;50.904;9.192;2023-07-13T06:36:02;1.70;;;0.73;;
16731;SDS011;8484;50.904;9.192;2023-07-13T06:38:29;0.90;;;0.70;;
16731;SDS011;8484;50.904;9.192;2023-07-13T06:40:56;1.73;;;0.90;;
16731;SDS011;8484;50.904;9.192;2023-07-13T06:43:23;2.37;;;0.60;;
16731;SDS011;8484;50.904;9.192;2023-07-13T06:45:51;1.70;;;0.77;;
16731;SDS011;8484;50.904;9.192;2023-07-13T06:48:22;1.50;;;0.70;;
16731;SDS011;8484;50.904;9.192;2023-07-13T06:50:49;1.57;;;0.50;;
16731;SDS011;8484;50.904;9.192;2023-07-13T06:53:18;0.93;;;0.50;;
16731;SDS011;8484;50.904;9.192;2023-07-13T06:55:46;1.93;;;0.70;;
16731;SDS011;8484;50.904;9.192;2023-07-13T06:58:14;1.47;;;0.60;;
16731;SDS011;8484;50.904;9.192;2023-07-13T07:00:41;1.37;;;0.43;;
16731;SDS011;8484;50.904;9.192;2023-07-13T07:03:08;0.97;;;0.63;;
16731;SDS011;8484;50.904;9.192;2023-07-13T07:05:37;2.67;;;0.87;;
16731;SDS011;8484;50.904;9.192;2023-07-13T07:08:04;1.20;;;0.50;;
16731;SDS011;8484;50.904;9.192;2023-07-13T07:10:31;1.20;;;0.60;;
16731;SDS011;8484;50.904;9.192;2023-07-13T07:12:58;2.43;;;0.63;;
16731;SDS011;8484;50.904;9.192;2023-07-13T07:15:25;1.33;;;0.50;;
16731;SDS011;8484;50.904;9.192;2023-07-13T07:17:52;1.37;;;0.70;;
16731;SDS011;8484;50.904;9.192;2023-07-13T07:20:19;1.17;;;0.67;;
16731;SDS011;8484;50.904;9.192;2023-07-13T07:22:47;1.40;;;0.47;;
16731;SDS011;8484;50.904;9.192;2023-07-13T07:25:15;1.50;;;0.50;;
16731;SDS011;8484;50.904;9.192;2023-07-13T07:27:42;2.20;;;0.70;;
16731;SDS011;8484;50.904;9.192;2023-07-13T07:30:09;1.17;;;0.53;;
16731;SDS011;8484;50.904;9.192;2023-07-13T07:32:36;2.10;;;0.70;;
16731;SDS011;8484;50.904;9.192;2023-07-13T07:35:04;5.53;;;0.97;;
16731;SDS011;8484;50.904;9.192;2023-07-13T07:37:31;1.77;;;0.53;;
16731;SDS011;8484;50.904;9.192;2023-07-13T07:40:00;2.73;;;0.53;;
16731;SDS011;8484;50.904;9.192;2023-07-13T07:42:27;1.87;;;0.60;;
16731;SDS011;8484;50.904;9.192;2023-07-13T07:44:54;2.00;;;0.50;;
16731;SDS011;8484;50.904;9.192;2023-07-13T07:47:21;2.20;;;0.60;;
16731;SDS011;8484;50.904;9.192;2023-07-13T07:49:49;1.97;;;0.67;;
16731;SDS011;8484;50.904;9.192;2023-07-13T07:52:16;2.27;;;0.90;;
16731;SDS011;8484;50.904;9.192;2023-07-13T07:54:43;0.80;;;0.50;;
16731;SDS011;8484;50.904;9.192;2023-07-13T07:57:11;3.10;;;0.43;;
16731;SDS011;8484;50.904;9.192;2023-07-13T07:59:38;1.47;;;0.50;;
16731;SDS011;8484;50.904;9.192;2023-07-13T08:02:05;1.43;;;0.60;;
16731;SDS011;8484;50.904;9.192;2023-07-13T08:04:32;1.23;;;0.60;;
16731;SDS011;8484;50.904;9.192;2023-07-13T08:06:59;1.90;;;0.60;;
16731;SDS011;8484;50.904;9.192;2023-07-13T08:09:27;1.57;;;0.60;;
16731;SDS011;8484;50.904;9.192;2023-07-13T08:11:54;1.67;;;0.60;;
16731;SDS011;8484;50.904;9.192;2023-07-13T08:14:23;2.17;;;0.70;;
16731;SDS011;8484;50.904;9.192;2023-07-13T08:16:49;1.43;;;0.50;;
16731;SDS011;8484;50.904;9.192;2023-07-13T08:19:16;2.23;;;0.80;;
16731;SDS011;8484;50.904;9.192;2023-07-13T08:21:43;0.73;;;0.40;;
16731;SDS011;8484;50.904;9.192;2023-07-13T08:24:10;1.10;;;0.43;;
16731;SDS011;8484;50.904;9.192;2023-07-13T08:26:37;1.60;;;0.60;;
16731;SDS011;8484;50.904;9.192;2023-07-13T08:29:03;0.80;;;0.40;;
16731;SDS011;8484;50.904;9.192;2023-07-13T08:31:32;0.50;;;0.33;;
16731;SDS011;8484;50.904;9.192;2023-07-13T08:33:59;1.47;;;0.60;;
16731;SDS011;8484;50.904;9.192;2023-07-13T08:36:29;2.53;;;0.47;;
16731;SDS011;8484;50.904;9.192;2023-07-13T08:38:57;1.17;;;0.50;;
16731;SDS011;8484;50.904;9.192;2023-07-13T08:41:24;1.57;;;0.50;;
16731;SDS011;8484;50.904;9.192;2023-07-13T08:43:51;0.90;;;0.37;;
16731;SDS011;8484;50.904;9.192;2023-07-13T08:46:23;2.60;;;0.63;;
16731;SDS011;8484;50.904;9.192;2023-07-13T08:48:55;8.90;;;0.57;;
16731;SDS011;8484;50.904;9.192;2023-07-13T08:51:26;3.10;;;0.67;;
16731;SDS011;8484;50.904;9.192;2023-07-13T08:54:00;1.17;;;0.43;;
16731;SDS011;8484;50.904;9.192;2023-07-13T08:56:29;2.80;;;0.70;;
16731;SDS011;8484;50.904;9.192;2023-07-13T08:59:04;0.63;;;0.30;;
16731;SDS011;8484;50.904;9.192;2023-07-13T09:01:45;0.70;;;0.30;;
16731;SDS011;8484;50.904;9.192;2023-07-13T09:04:29;1.00;;;0.40;;
16731;SDS011;8484;50.904;9.192;2023-07-13T09:07:04;1.70;;;0.20;;
16731;SDS011;8484;50.904;9.192;2023-07-13T09:09:41;0.37;;;0.30;;
16731;SDS011;8484;50.904;9.192;2023-07-13T09:12:17;0.70;;;0.40;;
16731;SDS011;8484;50.904;9.192;2023-07-13T09:14:50;0.77;;;0.33;;
16731;SDS011;8484;50.904;9.192;2023-07-13T09:17:20;0.80;;;0.40;;
16731;SDS011;8484;50.904;9.192;2023-07-13T09:19:54;0.67;;;0.30;;
16731;SDS011;8484;50.904;9.192;2023-07-13T09:22:25;0.50;;;0.27;;
16731;SDS011;8484;50.904;9.192;2023-07-13T09:24:57;0.60;;;0.40;;
16731;SDS011;8484;50.904;9.192;2023-07-13T09:27:32;0.70;;;0.50;;
16731;SDS011;8484;50.904;9.192;2023-07-13T09:30:11;0.40;;;0.20;;
16731;SDS011;8484;50.904;9.192;2023-07-13T09:32:51;1.30;;;0.47;;
16731;SDS011;8484;50.904;9.192;2023-07-13T09:35:21;0.90;;;0.40;;
16731;SDS011;8484;50.904;9.192;2023-07-13T09:37:56;0.33;;;0.30;;
16731;SDS011;8484;50.904;9.192;2023-07-13T09:40:24;1.53;;;0.50;;
16731;SDS011;8484;50.904;9.192;2023-07-13T09:42:56;0.63;;;0.30;;
16731;SDS011;8484;50.904;9.192;2023-07-13T09:45:28;0.97;;;0.47;;
16731;SDS011;8484;50.904;9.192;2023-07-13T09:48:03;1.40;;;0.40;;
16731;SDS011;8484;50.904;9.192;2023-07-13T09:50:32;0.90;;;0.50;;
16731;SDS011;8484;50.904;9.192;2023-07-13T09:53:00;0.97;;;0.40;;
16731;SDS011;8484;50.904;9.192;2023-07-13T09:55:29;1.57;;;0.47;;
16731;SDS011;8484;50.904;9.192;2023-07-13T09:58:02;1.30;;;0.60;;
16731;SDS011;8484;50.904;9.192;2023-07-13T10:00:31;0.47;;;0.27;;
16731;SDS011;8484;50.904;9.192;2023-07-13T10:02:59;1.13;;;0.40;;
16731;SDS011;8484;50.904;9.192;2023-07-13T10:05:39;1.43;;;0.50;;
16731;SDS011;8484;50.904;9.192;2023-07-13T10:08:15;0.50;;;0.30;;
16731;SDS011;8484;50.904;9.192;2023-07-13T10:10:51;1.27;;;0.40;;
16731;SDS011;8484;50.904;9.192;2023-07-13T10:13:27;0.30;;;0.30;;
16731;SDS011;8484;50.904;9.192;2023-07-13T10:15:57;0.97;;;0.43;;
16731;SDS011;8484;50.904;9.192;2023-07-13T10:18:25;0.67;;;0.30;;
16731;SDS011;8484;50.904;9.192;2023-07-13T10:20:58;0.40;;;0.20;;
16731;SDS011;8484;50.904;9.192;2023-07-13T10:23:33;0.33;;;0.23;;
16731;SDS011;8484;50.904;9.192;2023-07-13T10:26:01;0.30;;;0.20;;
16731;SDS011;8484;50.904;9.192;2023-07-13T10:28:31;0.40;;;0.20;;
16731;SDS011;8484;50.904;9.192;2023-07-13T10:31:02;0.30;;;0.30;;
16731;SDS011;8484;50.904;9.192;2023-07-13T10:33:37;0.97;;;0.37;;
16731;SDS011;8484;50.904;9.192;2023-07-13T10:36:10;0.40;;;0.30;;
16731;SDS011;8484;50.904;9.192;2023-07-13T10:38:40;2.13;;;0.40;;
16731;SDS011;8484;50.904;9.192;2023-07-13T10:41:08;0.40;;;0.30;;
16731;SDS011;8484;50.904;9.192;2023-07-13T10:43:39;0.70;;;0.23;;
16731;SDS011;8484;50.904;9.192;2023-07-13T10:46:08;0.40;;;0.30;;
16731;SDS011;8484;50.904;9.192;2023-07-13T10:48:37;1.00;;;0.30;;
16731;SDS011;8484;50.904;9.192;2023-07-13T10:51:08;0.37;;;0.20;;
16731;SDS011;8484;50.904;9.192;2023-07-13T10:53:37;0.50;;;0.37;;
16731;SDS011;8484;50.904;9.192;2023-07-13T10:56:06;0.77;;;0.27;;
16731;SDS011;8484;50.904;9.192;2023-07-13T10:58:48;1.23;;;0.20;;
16731;SDS011;8484;50.904;9.192;2023-07-13T11:01:39;0.33;;;0.30;;
16731;SDS011;8484;50.904;9.192;2023-07-13T11:04:08;0.20;;;0.20;;
16731;SDS011;8484;50.904;9.192;2023-07-13T11:06:50;0.60;;;0.40;;
16731;SDS011;8484;50.904;9.192;2023-07-13T11:09:31;1.33;;;0.30;;
16731;SDS011;8484;50.904;9.192;2023-07-13T11:12:02;1.07;;;0.20;;
16731;SDS011;8484;50.904;9.192;2023-07-13T11:14:35;2.07;;;0.40;;
16731;SDS011;8484;50.904;9.192;2023-07-13T11:20:18;0.93;;;0.20;;
16731;SDS011;8484;50.904;9.192;2023-07-13T11:23:08;0.43;;;0.20;;
16731;SDS011;8484;50.904;9.192;2023-07-13T11:25:46;0.90;;;0.20;;
16731;SDS011;8484;50.904;9.192;2023-07-13T11:28:15;0.67;;;0.30;;
16731;SDS011;8484;50.904;9.192;2023-07-13T11:30:46;1.03;;;0.50;;
16731;SDS011;8484;50.904;9.192;2023-07-13T11:33:16;2.03;;;0.20;;
16731;SDS011;8484;50.904;9.192;2023-07-13T11:35:46;0.97;;;0.30;;
16731;SDS011;8484;50.904;9.192;2023-07-13T11:38:22;1.37;;;0.30;;
16731;SDS011;8484;50.904;9.192;2023-07-13T11:40:53;0.83;;;0.30;;
16731;SDS011;8484;50.904;9.192;2023-07-13T11:43:21;0.30;;;0.27;;
16731;SDS011;8484;50.904;9.192;2023-07-13T11:45:49;2.17;;;0.37;;
16731;SDS011;8484;50.904;9.192;2023-07-13T11:48:23;0.97;;;0.43;;
16731;SDS011;8484;50.904;9.192;2023-07-13T11:50:53;0.90;;;0.40;;
16731;SDS011;8484;50.904;9.192;2023-07-13T11:53:25;0.60;;;0.30;;
16731;SDS011;8484;50.904;9.192;2023-07-13T11:55:54;0.80;;;0.40;;
16731;SDS011;8484;50.904;9.192;2023-07-13T11:58:23;1.03;;;0.40;;
16731;SDS011;8484;50.904;9.192;2023-07-13T12:00:51;1.20;;;0.40;;
16731;SDS011;8484;50.904;9.192;2023-07-13T12:03:20;1.47;;;0.30;;
16731;SDS011;8484;50.904;9.192;2023-07-13T12:06:00;0.20;;;0.10;;
16731;SDS011;8484;50.904;9.192;2023-07-13T12:08:37;0.60;;;0.30;;
16731;SDS011;8484;50.904;9.192;2023-07-13T12:11:05;0.43;;;0.30;;
16731;SDS011;8484;50.904;9.192;2023-07-13T12:13:40;1.53;;;0.30;;
16731;SDS011;8484;50.904;9.192;2023-07-13T12:16:14;0.53;;;0.30;;
16731;SDS011;8484;50.904;9.192;2023-07-13T12:18:43;0.40;;;0.23;;
16731;SDS011;8484;50.904;9.192;2023-07-13T12:21:13;0.67;;;0.30;;
16731;SDS011;8484;50.904;9.192;2023-07-13T12:23:44;0.50;;;0.30;;
16731;SDS011;8484;50.904;9.192;2023-07-13T12:26:14;0.60;;;0.33;;
16731;SDS011;8484;50.904;9.192;2023-07-13T12:28:44;0.87;;;0.40;;
16731;SDS011;8484;50.904;9.192;2023-07-13T12:31:22;0.50;;;0.30;;
16731;SDS011;8484;50.904;9.192;2023-07-13T12:33:58;0.60;;;0.40;;
16731;SDS011;8484;50.904;9.192;2023-07-13T12:36:29;0.67;;;0.40;;
16731;SDS011;8484;50.904;9.192;2023-07-13T12:39:03;0.30;;;0.30;;
16731;SDS011;8484;50.904;9.192;2023-07-13T12:41:38;3.07;;;0.60;;
16731;SDS011;8484;50.904;9.192;2023-07-13T12:44:08;0.43;;;0.40;;
16731;SDS011;8484;50.904;9.192;2023-07-13T12:46:37;0.83;;;0.40;;
16731;SDS011;8484;50.904;9.192;2023-07-13T12:49:05;0.60;;;0.40;;
16731;SDS011;8484;50.904;9.192;2023-07-13T12:51:33;0.60;;;0.30;;
16731;SDS011;8484;50.904;9.192;2023-07-13T12:54:07;0.87;;;0.50;;
16731;SDS011;8484;50.904;9.192;2023-07-13T12:56:41;0.60;;;0.40;;
16731;SDS011;8484;50.904;9.192;2023-07-13T12:59:11;0.93;;;0.47;;
16731;SDS011;8484;50.904;9.192;2023-07-13T13:01:45;0.40;;;0.33;;
16731;SDS011;8484;50.904;9.192;2023-07-13T13:04:14;1.10;;;0.37;;
16731;SDS011;8484;50.904;9.192;2023-07-13T13:06:46;0.90;;;0.40;;
16731;SDS011;8484;50.904;9.192;2023-07-13T13:09:16;0.90;;;0.40;;
16731;SDS011;8484;50.904;9.192;2023-07-13T13:11:45;0.63;;;0.30;;
16731;SDS011;8484;50.904;9.192;2023-07-13T13:14:12;0.60;;;0.40;;
16731;SDS011;8484;50.904;9.192;2023-07-13T13:16:43;0.43;;;0.30;;
16731;SDS011;8484;50.904;9.192;2023-07-13T13:19:14;0.57;;;0.40;;
16731;SDS011;8484;50.904;9.192;2023-07-13T13:21:44;0.93;;;0.50;;
16731;SDS011;8484;50.904;9.192;2023-07-13T13:24:12;2.10;;;0.40;;
16731;SDS011;8484;50.904;9.192;2023-07-13T13:26:41;1.03;;;0.40;;
16731;SDS011;8484;50.904;9.192;2023-07-13T13:29:10;0.70;;;0.47;;
16731;SDS011;8484;50.904;9.192;2023-07-13T13:31:39;0.33;;;0.20;;
16731;SDS011;8484;50.904;9.192;2023-07-13T13:34:07;0.80;;;0.30;;
16731;SDS011;8484;50.904;9.192;2023-07-13T13:36:36;0.87;;;0.40;;
16731;SDS011;8484;50.904;9.192;2023-07-13T13:39:04;0.43;;;0.40;;
16731;SDS011;8484;50.904;9.192;2023-07-13T13:41:44;0.43;;;0.30;;
16731;SDS011;8484;50.904;9.192;2023-07-13T13:44:10;0.73;;;0.40;;
16731;SDS011;8484;50.904;9.192;2023-07-13T13:46:39;0.70;;;0.40;;
16731;SDS011;8484;50.904;9.192;2023-07-13T13:49:08;0.60;;;0.40;;
16731;SDS011;8484;50.904;9.192;2023-07-13T13:51:37;1.03;;;0.40;;
16731;SDS011;8484;50.904;9.192;2023-07-13T13:54:05;2.00;;;0.30;;
16731;SDS011;8484;50.904;9.192;2023-07-13T13:56:35;0.30;;;0.30;;
16731;SDS011;8484;50.904;9.192;2023-07-13T13:59:03;0.70;;;0.40;;
16731;SDS011;8484;50.904;9.192;2023-07-13T14:01:30;0.60;;;0.50;;
16731;SDS011;8484;50.904;9.192;2023-07-13T14:03:57;0.93;;;0.30;;
16731;SDS011;8484;50.904;9.192;2023-07-13T14:06:24;1.23;;;0.50;;
16731;SDS011;8484;50.904;9.192;2023-07-13T14:08:51;0.47;;;0.30;;
16731;SDS011;8484;50.904;9.192;2023-07-13T14:11:21;1.00;;;0.57;;
16731;SDS011;8484;50.904;9.192;2023-07-13T14:13:49;1.23;;;0.40;;
16731;SDS011;8484;50.904;9.192;2023-07-13T14:16:19;1.27;;;0.50;;
16731;SDS011;8484;50.904;9.192;2023-07-13T14:18:47;2.63;;;0.70;;
16731;SDS011;8484;50.904;9.192;2023-07-13T14:21:16;2.47;;;0.50;;
16731;SDS011;8484;50.904;9.192;2023-07-13T14:23:44;0.83;;;0.50;;
16731;SDS011;8484;50.904;9.192;2023-07-13T14:26:13;1.17;;;0.50;;
16731;SDS011;8484;50.904;9.192;2023-07-13T14:28:41;0.73;;;0.50;;
16731;SDS011;8484;50.904;9.192;2023-07-13T14:31:10;0.73;;;0.50;;
16731;SDS011;8484;50.904;9.192;2023-07-13T14:33:39;1.03;;;0.40;;
16731;SDS011;8484;50.904;9.192;2023-07-13T14:36:09;1.43;;;0.60;;
16731;SDS011;8484;50.904;9.192;2023-07-13T14:38:49;0.70;;;0.40;;
16731;SDS011;8484;50.904;9.192;2023-07-13T14:41:16;0.57;;;0.40;;
16731;SDS011;8484;50.904;9.192;2023-07-13T14:43:43;0.37;;;0.37;;
16731;SDS011;8484;50.904;9.192;2023-07-13T14:46:11;1.50;;;0.60;;
16731;SDS011;8484;50.904;9.192;2023-07-13T14:49:03;0.50;;;0.40;;
16731;SDS011;8484;50.904;9.192;2023-07-13T14:51:32;0.63;;;0.30;;
16731;SDS011;8484;50.904;9.192;2023-07-13T14:54:01;1.53;;;0.60;;
16731;SDS011;8484;50.904;9.192;2023-07-13T14:56:29;1.17;;;0.30;;
16731;SDS011;8484;50.904;9.192;2023-07-13T14:58:56;1.07;;;0.50;;
16731;SDS011;8484;50.904;9.192;2023-07-13T15:01:23;2.03;;;0.47;;
16731;SDS011;8484;50.904;9.192;2023-07-13T15:03:51;1.27;;;0.50;;
16731;SDS011;8484;50.904;9.192;2023-07-13T15:06:20;0.37;;;0.37;;
16731;SDS011;8484;50.904;9.192;2023-07-13T15:08:47;0.50;;;0.30;;
16731;SDS011;8484;50.904;9.192;2023-07-13T15:11:15;0.83;;;0.43;;
16731;SDS011;8484;50.904;9.192;2023-07-13T15:13:43;3.20;;;0.50;;
16731;SDS011;8484;50.904;9.192;2023-07-13T15:16:14;0.70;;;0.40;;